الصفحة الرئيسية
METAR-TAF:

METAR-TAF

مطار :

مطار فاكلاف هافيل الدولي

براغ, التشيك

دائرة عرض: 50-06N, خط طول: 014-15E, ارتفاع: 365 متر

مراقبة الطقس الحالي

تاريخ ووقت الإصدار 23 دقيقة قبل الساعة 00:00UTC
ريح 5 عقدة من الشمال/الشمال الغربي
درجة الحرارة 20°درجة مئوية
الرطوبة 60%
ضغط 1018 hPa
الرؤية 10 كم أو أكثر
الغيوم لا تقل 1500 م ولا وجود لمزنة ركامية السحاب الأسود

METAR: LKPR 180000Z 33005KT CAVOK 20/12 Q1018 NOSIG

زمن: 02:23 (00:23 UTC)

توقعات

تاريخ ووقت الإصدار 1ساعة و 23 دقيقة قبل الساعة 23:00UTC
التوقعات صالحة من18 الساعة 00 UTC إلى 19 الساعة 06 UTC
ريح 5 عقدة من الشمال
الرؤية 10 كم أو أكثر
الغيوم لا تقل 1500 م ولا وجود لمزنة ركامية السحاب الأسود
مؤقت
من 18 الساعة 06 UTC إلى 18 الساعة 21 UTC
ريح 8 عقدة من الشمال
نظرية الاحتمالات 30% :
مؤقت
من 18 الساعة 11 UTC إلى 18 الساعة 21 UTC
ريح 14 عقدة من الشمال تتزايد حتى 28 عقدة
الرؤية: 7000 متر
غيوم متفرقة على ارتفاع 6000 قدم, مزنة ركامية.
زخات من المطر

TAF: LKPR 172300Z 1800/1906 01005KT CAVOK TEMPO 1806/1821 01008KT PROB30 TEMPO 1811/1821 35014G28KT 7000 SHRA SCT060CB

أرصاد الطقس والتوقعات من أكثر من 4000 مطار (تقارير الطقس للمطار METAR والتنبؤ بالطقس بالمطارTAF).

المحطات المتاحة هي النقط الصفراء والحمراء على الخريطة.

حرك المؤشر فوق النقطة لمعرفة اسم المحطة.

ثم انقر لمعرفة أرصاد وتوقعات الطقس.

لتغيير الخارطة: اضغط على الأزرار الخضراء مع رمز الصليب الأسود للتكبير. على الزر الأخضر مع شرطة للتصغير، أو على الأسهم الخضراء للخرائط المجاورة.


METAR-TAF: